Time;durP1;ratioP1;P1;durP2;ratioP2;P2;SDS_P1;SDS_P2;PMS_P1;PMS_P2;Temp;Humidity;BMP_temperature;BMP_pressure;BME280_temperature;BME280_humidity;BME280_pressure;Samples;Min_cycle;Max_cycle;Signal;HPM_P1;HPM_P2
2022/11/25 00:03:13;;;;;;;152.83;55.30;;;;;;;2.82;100.00;100559.41;3635040;80;99143;-87
2022/11/25 00:08:14;;;;;;;150.78;54.42;;;;;;;2.77;100.00;100571.80;3625639;79;25845;-86
2022/11/25 00:13:15;;;;;;;157.60;54.20;;;;;;;2.74;100.00;100577.09;3621344;79;99300;-86
2022/11/25 00:18:16;;;;;;;146.47;55.07;;;;;;;2.74;100.00;100565.64;3636233;79;33739;-85
2022/11/25 00:23:16;;;;;;;142.83;51.53;;;;;;;2.76;100.00;100570.77;3637517;79;108823;-86
2022/11/25 00:28:17;;;;;;;167.87;52.57;;;;;;;2.77;100.00;100560.13;3620612;79;33748;-86
2022/11/25 00:33:18;;;;;;;145.27;50.87;;;;;;;2.80;100.00;100565.71;3606094;79;99112;-86
2022/11/25 00:38:19;;;;;;;157.90;55.63;;;;;;;2.81;100.00;100566.52;3605976;81;32260;-85
2022/11/25 00:48:39;;;;;;;141.63;53.77;;;;;;;2.81;100.00;100564.61;3613378;81;30494;-86
2022/11/25 00:53:39;;;;;;;132.22;48.40;;;;;;;2.78;100.00;100562.52;3612758;79;99277;-85
2022/11/25 00:58:42;;;;;;;160.20;54.63;;;;;;;2.81;100.00;100580.92;3610359;79;31871;-86
2022/11/25 01:03:43;;;;;;;171.23;53.73;;;;;;;2.79;100.00;100582.36;3600358;81;99149;-86
2022/11/25 01:08:44;;;;;;;149.23;55.20;;;;;;;2.78;100.00;100583.48;3610802;79;31576;-85
2022/11/25 01:13:45;;;;;;;140.32;49.13;;;;;;;2.76;100.00;100578.91;3625606;79;99257;-86
2022/11/25 01:18:47;;;;;;;136.83;49.60;;;;;;;2.76;100.00;100577.00;3611798;81;32132;-86
2022/11/25 01:23:48;;;;;;;138.50;50.70;;;;;;;2.80;100.00;100586.67;3612597;79;99295;-85
2022/11/25 01:28:56;;;;;;;135.93;47.43;;;;;;;2.77;100.00;100585.94;3614000;79;31610;-86
2022/11/25 01:34:02;;;;;;;126.58;46.92;;;;;;;2.72;100.00;100590.99;3608427;79;99122;-86
2022/11/25 01:39:04;;;;;;;102.80;41.57;;;;;;;2.70;100.00;100594.59;3614565;80;26509;-87
2022/11/25 01:44:19;;;;;;;105.83;41.67;;;;;;;2.70;100.00;100602.75;3618714;79;99187;-87
2022/11/25 01:49:46;;;;;;;115.57;42.15;;;;;;;2.66;100.00;100603.14;3619322;81;32387;-86
2022/11/25 01:55:04;;;;;;;115.45;42.23;;;;;;;2.60;100.00;100592.20;3621673;79;99163;-86
2022/11/25 02:00:07;;;;;;;96.25;37.05;;;;;;;2.53;100.00;100597.87;3619990;79;32947;-85
2022/11/25 02:05:12;;;;;;;98.33;41.17;;;;;;;2.49;100.00;100605.05;3625020;80;98939;-86
2022/11/25 02:10:27;;;;;;;91.53;37.47;;;;;;;2.43;100.00;100597.63;3629420;80;27533;-86
2022/11/25 02:15:30;;;;;;;90.40;37.05;;;;;;;2.38;100.00;100596.43;3627909;80;99002;-86
2022/11/25 02:20:31;;;;;;;92.62;38.10;;;;;;;2.43;100.00;100604.97;3637436;80;33772;-86
2022/11/25 02:25:36;;;;;;;82.47;34.50;;;;;;;2.48;100.00;100611.61;3625614;79;99056;-86
2022/11/25 02:30:37;;;;;;;88.00;36.55;;;;;;;2.52;100.00;100612.58;3625286;80;31390;-87
2022/11/25 02:35:42;;;;;;;82.45;34.33;;;;;;;2.52;100.00;100599.77;3619143;80;99026;-86
2022/11/25 02:40:54;;;;;;;79.37;34.53;;;;;;;2.44;100.00;100607.38;3638801;80;32436;-86
2022/11/25 02:46:06;;;;;;;79.12;33.05;;;;;;;2.47;100.00;100604.58;3634580;79;99060;-86
2022/11/25 02:51:11;;;;;;;92.00;39.40;;;;;;;2.44;100.00;100598.41;3626892;80;28569;-86
2022/11/25 02:56:14;;;;;;;90.00;38.70;;;;;;;2.38;100.00;100599.69;3627721;79;98902;-86
2022/11/25 03:01:16;;;;;;;83.62;35.30;;;;;;;2.40;100.00;100599.61;3631317;80;32739;-87
2022/11/25 03:06:17;;;;;;;81.37;37.53;;;;;;;2.41;100.00;100596.35;3624407;80;98886;-86
2022/11/25 03:11:18;;;;;;;85.20;36.70;;;;;;;2.40;100.00;100611.84;3624971;80;31657;-86
2022/11/25 03:16:18;;;;;;;76.40;34.03;;;;;;;2.43;100.00;100603.61;3628990;80;98961;-86
2022/11/25 03:21:19;;;;;;;77.03;35.13;;;;;;;2.44;100.00;100607.38;3630184;79;32235;-86
2022/11/25 03:26:21;;;;;;;76.70;32.30;;;;;;;2.45;100.00;100606.25;3620447;79;98837;-86
2022/11/25 03:31:21;;;;;;;77.10;33.40;;;;;;;2.44;100.00;100603.30;3630671;80;32304;-86
2022/11/25 03:36:22;;;;;;;68.60;31.70;;;;;;;2.44;100.00;100609.28;3622407;80;98980;-86
2022/11/25 03:41:23;;;;;;;71.60;33.13;;;;;;;2.41;100.00;100605.28;3636101;80;30491;-85
2022/11/25 03:46:24;;;;;;;75.83;32.57;;;;;;;2.44;100.00;100602.48;3611980;80;99170;-86
2022/11/25 03:51:24;;;;;;;77.80;35.77;;;;;;;2.45;100.00;100608.16;3630210;80;35388;-86
2022/11/25 03:56:25;;;;;;;83.53;35.53;;;;;;;2.47;100.00;100620.88;3627353;80;98955;-87
2022/11/25 04:01:26;;;;;;;76.47;33.73;;;;;;;2.43;100.00;100613.93;3636056;79;34822;-86
2022/11/25 04:06:27;;;;;;;74.33;32.47;;;;;;;2.37;100.00;100614.39;3620998;80;99044;-87
2022/11/25 04:16:47;;;;;;;77.93;33.83;;;;;;;2.34;100.00;100598.17;3628113;80;98815;-86
2022/11/25 04:21:48;;;;;;;75.97;33.60;;;;;;;2.35;100.00;100631.00;3650208;79;34787;-85
2022/11/25 04:26:50;;;;;;;86.43;36.73;;;;;;;2.36;100.00;100638.59;3620221;80;98729;-86
2022/11/25 04:31:50;;;;;;;89.80;37.83;;;;;;;2.35;100.00;100645.94;3625860;80;34874;-86
2022/11/25 04:36:51;;;;;;;81.60;35.40;;;;;;;2.31;100.00;100642.28;3621153;80;98811;-86
2022/11/25 04:42:30;;;;;;;74.37;32.87;;;;;;;2.23;100.00;100640.33;3638189;80;35137;-86
2022/11/25 04:46:57;;;;;;;72.65;31.42;;;;;;;2.22;100.00;100646.06;3628313;80;98739;-85
2022/11/25 04:51:58;;;;;;;72.37;33.20;;;;;;;2.23;100.00;100640.87;3631261;80;34877;-85
2022/11/25 04:56:59;;;;;;;67.27;32.07;;;;;;;2.19;100.00;100648.08;3625802;80;98850;-85
2022/11/25 05:01:59;;;;;;;62.63;30.00;;;;;;;2.19;100.00;100646.14;3629772;79;35166;-85
2022/11/25 05:07:01;;;;;;;65.87;30.33;;;;;;;2.20;100.00;100644.23;3623154;79;98785;-85
2022/11/25 05:12:02;;;;;;;63.37;27.87;;;;;;;2.22;100.00;100647.42;3637071;79;35477;-85
2022/11/25 05:17:05;;;;;;;64.93;27.87;;;;;;;2.26;100.00;100644.33;3620234;79;98612;-84
2022/11/25 05:22:12;;;;;;;65.93;30.33;;;;;;;2.25;100.00;100642.73;3644860;79;35418;-85
2022/11/25 05:27:14;;;;;;;65.67;28.70;;;;;;;2.26;100.00;100641.61;3619713;79;98818;-85
2022/11/25 05:32:15;;;;;;;68.50;30.97;;;;;;;2.27;100.00;100647.28;3589762;81;28859;-85
2022/11/25 05:37:16;;;;;;;60.17;28.93;;;;;;;2.28;100.00;100639.37;3606148;81;99009;-85
2022/11/25 05:42:17;;;;;;;68.47;30.70;;;;;;;2.22;100.00;100642.80;3629866;79;34832;-85
2022/11/25 05:47:18;;;;;;;74.17;34.17;;;;;;;2.20;100.00;100651.03;3608495;81;98924;-85
2022/11/25 05:52:19;;;;;;;65.60;29.33;;;;;;;2.20;100.00;100654.52;3612955;79;35329;-85
2022/11/25 05:57:19;;;;;;;65.13;29.23;;;;;;;2.21;100.00;100653.44;3611350;79;98837;-86
2022/11/25 06:02:20;;;;;;;68.07;30.23;;;;;;;2.25;100.00;100653.59;3622695;79;36060;-86
2022/11/25 06:07:21;;;;;;;66.60;31.35;;;;;;;2.22;100.00;100656.38;3589979;80;98768;-86
2022/11/25 06:12:22;;;;;;;65.33;30.70;;;;;;;2.21;100.00;100660.22;3607495;80;30061;-86
2022/11/25 06:17:23;;;;;;;62.67;29.97;;;;;;;2.22;100.00;100668.59;3600815;80;98690;-85
2022/11/25 06:22:24;;;;;;;62.00;30.37;;;;;;;2.25;100.00;100662.52;3608841;80;32569;-86
2022/11/25 06:27:25;;;;;;;61.57;29.13;;;;;;;2.26;100.00;100676.37;3596784;80;98734;-86
2022/11/25 06:32:25;;;;;;;67.53;29.70;;;;;;;2.27;100.00;100689.37;3608986;80;32892;-86
2022/11/25 06:37:26;;;;;;;62.93;29.03;;;;;;;2.30;100.00;100690.11;3599517;80;98812;-84
2022/11/25 06:42:27;;;;;;;65.17;29.33;;;;;;;2.28;100.00;100691.78;3600274;80;32502;-85
2022/11/25 06:47:28;;;;;;;66.95;30.60;;;;;;;2.27;100.00;100693.44;3604349;80;98877;-85
2022/11/25 06:52:32;;;;;;;70.53;31.33;;;;;;;2.23;100.00;100690.56;3603425;80;27462;-85
2022/11/25 06:57:33;;;;;;;66.90;31.55;;;;;;;2.20;100.00;100689.81;3603623;80;98768;-86
2022/11/25 07:02:33;;;;;;;76.83;33.87;;;;;;;2.23;100.00;100688.39;3601908;80;26231;-87
2022/11/25 07:07:35;;;;;;;71.47;35.10;;;;;;;2.24;100.00;100696.23;3621788;79;99091;-85
2022/11/25 07:12:36;;;;;;;72.00;31.33;;;;;;;2.27;100.00;100700.23;3627165;79;25926;-86
2022/11/25 07:17:36;;;;;;;80.00;36.00;;;;;;;2.29;100.00;100699.38;3623850;79;98713;-86
2022/11/25 07:22:37;;;;;;;77.60;33.47;;;;;;;2.30;100.00;100711.83;3626837;79;25803;-86
2022/11/25 07:27:38;;;;;;;78.83;33.80;;;;;;;2.31;100.00;100706.64;3623639;79;98895;-86
2022/11/25 07:32:39;;;;;;;85.70;35.40;;;;;;;2.31;100.00;100718.31;3628764;79;26624;-86
2022/11/25 07:37:39;;;;;;;85.40;34.77;;;;;;;2.34;100.00;100725.00;3625978;79;98868;-86
2022/11/25 07:42:40;;;;;;;84.30;33.70;;;;;;;2.29;100.00;100730.03;3630874;79;33281;-86
2022/11/25 07:47:41;;;;;;;76.87;34.20;;;;;;;2.30;100.00;100731.63;3625386;79;98889;-86
2022/11/25 07:52:42;;;;;;;71.63;31.30;;;;;;;2.19;100.00;100718.66;3626056;79;33212;-86
2022/11/25 07:57:42;;;;;;;77.67;32.50;;;;;;;2.19;100.00;100718.66;3623401;79;98977;-86
2022/11/25 08:02:43;;;;;;;74.27;33.33;;;;;;;2.35;100.00;100745.06;3636545;79;33733;-86
2022/11/25 08:07:44;;;;;;;80.70;35.40;;;;;;;2.40;100.00;100753.07;3597522;80;98800;-87
2022/11/25 08:12:45;;;;;;;76.27;35.43;;;;;;;2.45;100.00;100750.21;3599994;80;34129;-87
2022/11/25 08:17:46;;;;;;;80.00;34.77;;;;;;;2.44;100.00;100755.95;3591166;80;98918;-87
2022/11/25 08:22:47;;;;;;;73.93;33.07;;;;;;;2.52;100.00;100745.69;3595150;80;31657;-86
2022/11/25 08:27:47;;;;;;;82.37;35.07;;;;;;;2.60;100.00;100754.40;3593251;80;98659;-87
2022/11/25 08:32:48;;;;;;;83.43;34.27;;;;;;;2.65;100.00;100746.92;3572076;82;31758;-87
2022/11/25 08:37:49;;;;;;;83.63;33.83;;;;;;;2.67;100.00;100755.55;3578259;81;98850;-87
2022/11/25 08:42:50;;;;;;;94.23;41.17;;;;;;;2.69;100.00;100747.86;3593722;80;31590;-87
2022/11/25 08:47:50;;;;;;;95.27;36.90;;;;;;;2.73;100.00;100745.34;3583967;80;98820;-87
2022/11/25 08:52:51;;;;;;;85.20;36.37;;;;;;;2.79;100.00;100747.56;3587042;81;30184;-87
2022/11/25 08:57:55;;;;;;;101.53;39.23;;;;;;;2.82;100.00;100756.45;3587877;80;98867;-87
2022/11/25 09:02:56;;;;;;;92.70;40.30;;;;;;;2.87;100.00;100759.02;3578715;81;26965;-87
2022/11/25 09:07:57;;;;;;;81.30;35.07;;;;;;;2.91;100.00;100753.20;3580554;80;98921;-87
2022/11/25 09:12:59;;;;;;;88.52;37.13;;;;;;;2.97;100.00;100757.36;3587234;80;34868;-86
2022/11/25 09:18:04;;;;;;;92.73;40.47;;;;;;;3.02;100.00;100757.75;3582327;81;98669;-87
2022/11/25 09:23:07;;;;;;;93.20;40.73;;;;;;;3.02;100.00;100757.75;3600617;81;25758;-87
2022/11/25 09:28:09;;;;;;;90.73;38.90;;;;;;;3.06;100.00;100773.10;3594017;80;26219;-87
2022/11/25 09:33:10;;;;;;;89.03;39.07;;;;;;;3.09;100.00;100767.05;3585825;80;100852;-86
2022/11/25 09:38:10;;;;;;;101.93;41.37;;;;;;;3.07;100.00;100768.48;3600734;80;35751;-87
2022/11/25 09:49:07;;;;;;;104.30;39.63;;;;;;;3.09;100.00;100747.20;3605335;80;25928;-87
2022/11/25 09:54:47;;;;;;;108.17;43.67;;;;;;;3.15;100.00;100764.95;3596209;80;99086;-87
2022/11/25 10:00:13;;;;;;;121.20;50.43;;;;;;;3.20;100.00;100763.44;3603713;80;26411;-86
2022/11/25 10:05:27;;;;;;;111.83;45.48;;;;;;;3.24;100.00;100773.38;3610371;79;99169;-87
2022/11/25 10:10:49;;;;;;;97.55;40.03;;;;;;;3.27;100.00;100767.86;3625425;79;29839;-87
2022/11/25 10:15:53;;;;;;;104.20;43.27;;;;;;;3.29;100.00;100769.11;3621708;80;98891;-87
2022/11/25 10:20:54;;;;;;;117.23;47.87;;;;;;;3.36;100.00;100773.53;3632454;81;26867;-87
2022/11/25 10:26:00;;;;;;;104.90;43.97;;;;;;;3.44;100.00;100778.15;3617575;79;99217;-87
2022/11/25 10:31:18;;;;;;;120.35;49.20;;;;;;;3.46;100.00;100779.20;3609129;80;25835;-87
2022/11/25 10:36:32;;;;;;;118.72;49.55;;;;;;;3.50;100.00;100787.75;3621357;79;98964;-87
2022/11/25 10:42:00;;;;;;;115.10;45.83;;;;;;;3.51;100.00;100788.56;3621349;79;31892;-87
2022/11/25 10:47:29;;;;;;;108.03;46.03;;;;;;;3.54;100.00;100791.44;3617426;80;98877;-87
2022/11/25 10:52:36;;;;;;;97.33;41.15;;;;;;;3.61;100.00;100793.10;3633612;79;29453;-87
2022/11/25 10:57:37;;;;;;;113.10;47.13;;;;;;;3.63;100.00;100788.70;3628503;79;98818;-88
2022/11/25 11:02:39;;;;;;;120.17;49.07;;;;;;;3.73;100.00;100797.91;3631965;79;35373;-88
2022/11/25 11:07:43;;;;;;;106.52;45.67;;;;;;;3.80;100.00;100799.02;3611848;80;98636;-88
2022/11/25 11:13:05;;;;;;;106.53;43.10;;;;;;;3.78;100.00;100795.80;3650897;80;28850;-87
2022/11/25 11:18:20;;;;;;;102.77;44.60;;;;;;;3.83;100.00;100788.05;3642352;80;98726;-87
2022/11/25 11:23:22;;;;;;;105.60;44.33;;;;;;;3.91;100.00;100796.74;3637237;80;99181;-87
2022/11/25 11:28:37;;;;;;;112.80;47.23;;;;;;;3.94;100.00;100794.75;3636356;80;31969;-88
2022/11/25 11:33:50;;;;;;;125.05;51.40;;;;;;;4.00;100.00;100798.34;3643627;80;99278;-87
2022/11/25 11:39:31;;;;;;;111.00;45.78;;;;;;;4.01;100.00;100790.95;3646164;80;30364;-87
2022/11/25 11:45:03;;;;;;;99.92;43.50;;;;;;;4.06;100.00;100801.67;3638505;80;99330;-88
2022/11/25 11:50:42;;;;;;;108.07;44.03;;;;;;;4.19;100.00;100793.86;3656081;79;26952;-88
2022/11/25 11:56:05;;;;;;;109.57;43.92;;;;;;;4.30;100.00;100791.02;3632953;80;99042;-88
2022/11/25 12:01:45;;;;;;;107.30;45.47;;;;;;;4.37;100.00;100798.14;3639549;80;26490;-88
2022/11/25 12:07:01;;;;;;;106.30;44.43;;;;;;;4.41;100.00;100793.61;3641210;79;99030;-88
2022/11/25 12:12:06;;;;;;;100.27;46.83;;;;;;;4.33;100.00;100775.39;3630541;79;30768;-88
2022/11/25 12:17:18;;;;;;;105.50;41.53;;;;;;;4.39;100.00;100783.62;3628643;79;98970;-88
2022/11/25 12:22:33;;;;;;;100.82;44.25;;;;;;;4.48;100.00;100777.58;3623848;79;30880;-87
2022/11/25 12:27:45;;;;;;;105.17;44.45;;;;;;;4.59;100.00;100777.44;3614385;79;98662;-88
2022/11/25 12:33:08;;;;;;;97.08;42.43;;;;;;;4.57;100.00;100776.95;3610459;81;30799;-87
2022/11/25 12:38:23;;;;;;;104.95;45.50;;;;;;;4.64;100.00;100778.03;3623631;79;28486;-87
2022/11/25 12:43:33;;;;;;;91.43;40.23;;;;;;;4.68;100.00;100775.45;3612828;79;99150;-86
2022/11/25 12:48:39;;;;;;;97.13;39.80;;;;;;;4.70;100.00;100771.84;3613019;79;26929;-87
2022/11/25 12:54:00;;;;;;;96.87;40.40;;;;;;;4.71;100.00;100771.53;3605928;79;98953;-88
2022/11/25 12:59:27;;;;;;;90.23;36.23;;;;;;;4.69;100.00;100781.94;3615383;81;26918;-87
2022/11/25 13:04:49;;;;;;;;;;;;;;;4.68;100.00;100780.90;3611957;79;99028;-88
2022/11/25 13:10:18;;;;;;;78.62;34.35;;;;;;;4.78;100.00;100784.62;3626624;79;30357;-87
2022/11/25 13:15:29;;;;;;;87.60;37.37;;;;;;;4.88;100.00;100795.96;3633131;79;98933;-87
2022/11/25 13:20:44;;;;;;;78.00;33.67;;;;;;;4.83;100.00;100791.25;3627625;79;29381;-87
2022/11/25 13:25:47;;;;;;;68.17;30.65;;;;;;;4.86;100.00;100798.78;3626388;79;98875;-88
2022/11/25 13:30:50;;;;;;;73.57;32.63;;;;;;;4.88;100.00;100803.33;3617223;80;28065;-86
2022/11/25 13:35:55;;;;;;;74.33;33.00;;;;;;;4.88;100.00;100801.41;3619255;79;99276;-87
2022/11/25 13:41:03;;;;;;;72.17;29.70;;;;;;;4.84;100.00;100803.19;3637119;79;26536;-87
2022/11/25 13:46:05;;;;;;;72.17;32.83;;;;;;;4.78;100.00;100805.06;3597361;79;98932;-86
2022/11/25 13:51:22;;;;;;;68.60;32.60;;;;;;;4.80;100.00;100818.61;3475393;83;26987;-87
2022/11/25 13:56:30;;;;;;;61.90;28.73;;;;;;;4.54;100.00;100793.98;3609423;80;98927;-86
2022/11/25 14:01:31;;;;;;;67.12;30.12;;;;;;;4.54;100.00;100793.98;3622633;79;28915;-87
2022/11/25 14:06:58;;;;;;;76.40;31.13;;;;;;;4.70;100.00;100830.46;3610502;80;99007;-86
2022/11/25 14:12:33;;;;;;;88.57;39.00;;;;;;;4.61;100.00;100829.69;3598853;81;26392;-87
2022/11/25 14:18:04;;;;;;;72.60;29.73;;;;;;;4.54;100.00;100827.46;3580128;80;98768;-87
2022/11/25 14:23:42;;;;;;;65.97;29.98;;;;;;;4.48;100.00;100832.86;3579408;81;30793;-87
2022/11/25 14:28:57;;;;;;;69.40;29.45;;;;;;;4.48;100.00;100826.63;3581191;81;29794;-87
2022/11/25 14:34:16;;;;;;;64.85;27.75;;;;;;;4.38;100.00;100838.70;3565286;81;98739;-88
2022/11/25 14:39:55;;;;;;;60.07;26.30;;;;;;;4.32;100.00;100838.61;3580419;81;26803;-88
2022/11/25 14:44:59;;;;;;;76.83;33.30;;;;;;;4.24;100.00;100843.53;3592226;80;98803;-87
2022/11/25 14:50:00;;;;;;;87.25;33.08;;;;;;;4.16;100.00;100841.61;3602604;81;29424;-87
2022/11/25 14:55:04;;;;;;;72.37;31.30;;;;;;;4.17;100.00;100847.88;3591219;80;98826;-87
2022/11/25 15:00:14;;;;;;;86.83;35.83;;;;;;;4.17;100.00;100854.13;3598946;80;26252;-88
2022/11/25 15:05:18;;;;;;;126.77;52.17;;;;;;;4.16;100.00;100850.36;3600564;80;99662;-87
2022/11/25 15:10:45;;;;;;;88.43;36.20;;;;;;;4.15;100.00;100860.45;3625108;79;27156;-87
2022/11/25 15:15:46;;;;;;;;;;;;;;;4.06;100.00;100862.41;3621930;79;99166;-87
2022/11/25 15:20:56;;;;;;;74.90;30.50;;;;;;;4.01;100.00;100868.56;3626490;81;34901;-88
2022/11/25 15:25:57;;;;;;;96.32;35.45;;;;;;;3.92;100.00;100870.48;3623375;79;98965;-87
2022/11/25 15:31:01;;;;;;;57.47;26.63;;;;;;;3.86;100.00;100868.51;3616438;79;34929;-87
2022/11/25 15:36:03;;;;;;;61.23;26.12;;;;;;;3.83;100.00;100872.44;3615039;79;99261;-88
2022/11/25 15:41:14;;;;;;;73.83;33.77;;;;;;;3.77;100.00;100873.73;3618947;79;25858;-87
2022/11/25 15:46:17;;;;;;;75.45;32.88;;;;;;;3.75;100.00;100876.77;3607221;79;98883;-87
2022/11/25 15:51:29;;;;;;;77.65;34.58;;;;;;;3.76;100.00;100877.58;3613806;81;31673;-88
2022/11/25 15:56:35;;;;;;;79.03;32.73;;;;;;;3.75;100.00;100885.47;3612021;79;98810;-88
2022/11/25 16:01:37;;;;;;;68.67;30.60;;;;;;;3.75;100.00;100882.20;3630054;79;26897;-88
2022/11/25 16:06:52;;;;;;;77.00;30.90;;;;;;;3.73;100.00;100882.28;3625872;79;98562;-89
2022/11/25 16:11:53;;;;;;;76.17;34.60;;;;;;;3.68;100.00;100881.08;3627828;79;30827;-88
2022/11/25 16:17:10;;;;;;;76.20;29.97;;;;;;;3.66;100.00;100885.47;3592258;79;98747;-88
2022/11/25 16:22:18;;;;;;;79.07;33.33;;;;;;;3.65;100.00;100889.91;3626646;79;26842;-91
2022/11/25 16:27:25;;;;;;;67.73;31.87;;;;;;;3.63;100.00;100898.37;3621960;79;98825;-87
2022/11/25 16:32:30;;;;;;;82.57;36.25;;;;;;;3.65;100.00;100896.12;3632460;79;30271;-87
2022/11/25 16:37:31;;;;;;;109.03;49.80;;;;;;;3.71;100.00;100902.23;3608927;79;98744;-88
2022/11/25 16:42:34;;;;;;;92.73;43.17;;;;;;;3.65;100.00;100906.23;3627017;79;34930;-87
2022/11/25 16:47:35;;;;;;;80.05;34.98;;;;;;;3.67;100.00;100905.34;3624386;79;98919;-87
2022/11/25 16:52:37;;;;;;;67.27;30.53;;;;;;;3.66;100.00;100904.53;3620048;81;35214;-88
2022/11/25 16:57:40;;;;;;;62.20;26.02;;;;;;;3.64;100.00;100902.70;3611084;79;98902;-87
2022/11/25 17:02:41;;;;;;;77.03;32.33;;;;;;;3.61;100.00;100907.41;3626160;81;26230;-88
2022/11/25 17:07:42;;;;;;;78.87;32.90;;;;;;;3.59;100.00;100911.02;3617549;81;98695;-87
2022/11/25 17:12:44;;;;;;;72.97;33.37;;;;;;;3.59;100.00;100910.20;3542508;82;34990;-87
2022/11/25 17:17:47;;;;;;;129.20;50.60;;;;;;;3.66;100.00;100916.78;3604684;80;98670;-87
2022/11/25 17:22:49;;;;;;;86.92;37.95;;;;;;;3.68;100.00;100917.28;3472112;83;28950;-86
2022/11/25 17:27:51;;;;;;;76.53;32.55;;;;;;;3.63;100.00;100904.38;3593822;80;98725;-87
2022/11/25 17:33:03;;;;;;;85.63;31.63;;;;;;;3.61;100.00;100912.84;3599619;80;26560;-86
2022/11/25 17:38:12;;;;;;;80.13;29.40;;;;;;;3.58;100.00;100907.24;3595679;81;98458;-87
2022/11/25 17:43:16;;;;;;;69.00;27.00;;;;;;;3.52;100.00;100912.60;3592980;80;98959;-86
2022/11/25 17:48:18;;;;;;;79.97;29.85;;;;;;;3.55;100.00;100922.29;3602348;80;31698;-87
2022/11/25 17:53:18;;;;;;;87.23;33.80;;;;;;;3.50;100.00;100928.45;3594512;80;99043;-86
2022/11/25 17:58:19;;;;;;;92.70;35.40;;;;;;;3.47;100.00;100929.89;3603164;80;34868;-86
2022/11/25 18:03:20;;;;;;;85.13;33.10;;;;;;;3.45;100.00;100930.75;3595828;80;98995;-87
2022/11/25 18:08:21;;;;;;;106.10;42.37;;;;;;;3.43;100.00;100933.55;3600901;80;34784;-87
2022/11/25 18:13:21;;;;;;;96.80;39.30;;;;;;;3.42;100.00;100931.40;3597385;80;99444;-87
2022/11/25 18:18:24;;;;;;;104.83;40.33;;;;;;;3.39;100.00;100938.04;3611127;80;34803;-86
2022/11/25 18:23:25;;;;;;;87.70;34.33;;;;;;;3.39;100.00;100929.30;3593918;80;99012;-88
2022/11/25 18:28:30;;;;;;;80.33;29.70;;;;;;;3.35;100.00;100942.50;3593276;80;34843;-87
2022/11/25 18:33:31;;;;;;;119.50;43.80;;;;;;;3.38;100.00;100944.60;3591118;81;99193;-87
2022/11/25 18:38:31;;;;;;;130.07;48.33;;;;;;;3.37;100.00;100943.80;3596319;80;34947;-85
2022/11/25 18:43:33;;;;;;;110.90;39.57;;;;;;;3.33;100.00;100937.38;3581837;80;99118;-87
2022/11/25 18:48:34;;;;;;;92.63;37.77;;;;;;;3.34;100.00;100944.98;3590714;80;34920;-87
2022/11/25 18:53:35;;;;;;;88.00;33.45;;;;;;;3.37;100.00;100947.06;3602200;80;98998;-88
2022/11/25 18:58:35;;;;;;;88.50;34.50;;;;;;;3.36;100.00;100947.63;3605440;80;34945;-88
2022/11/25 19:03:36;;;;;;;83.23;32.47;;;;;;;3.29;100.00;100945.91;3599523;80;98887;-88
2022/11/25 19:08:39;;;;;;;88.13;34.00;;;;;;;3.35;100.00;100950.66;3600427;80;35116;-87
2022/11/25 19:13:40;;;;;;;96.50;39.20;;;;;;;3.34;100.00;100964.81;3625667;79;98960;-89
2022/11/25 19:18:44;;;;;;;92.03;37.87;;;;;;;3.41;100.00;100973.88;3633367;79;34878;-88
2022/11/25 19:23:45;;;;;;;100.62;40.63;;;;;;;3.43;100.00;100973.00;3622699;79;98917;-88
2022/11/25 19:28:49;;;;;;;88.43;34.47;;;;;;;3.41;100.00;100962.45;3619725;79;26171;-87
2022/11/25 19:33:50;;;;;;;102.17;39.58;;;;;;;3.41;100.00;100977.42;3609344;81;98980;-87
2022/11/25 19:38:55;;;;;;;117.57;44.73;;;;;;;3.44;100.00;100979.48;3615104;79;35602;-88
2022/11/25 19:43:55;;;;;;;106.67;47.50;;;;;;;3.49;100.00;100992.16;3608152;81;99363;-86
2022/11/25 19:48:59;;;;;;;98.47;41.70;;;;;;;3.48;100.00;100990.53;3628146;79;34903;-87
2022/11/25 19:54:00;;;;;;;109.57;41.58;;;;;;;3.52;100.00;101000.50;3612931;79;98762;-87
2022/11/25 19:59:01;;;;;;;115.43;45.67;;;;;;;3.56;100.00;101006.88;3625084;79;35787;-87
2022/11/25 20:04:02;;;;;;;108.03;42.80;;;;;;;3.58;100.00;101003.86;3617684;79;99002;-86
2022/11/25 20:09:07;;;;;;;98.00;40.67;;;;;;;3.56;100.00;101008.25;3617039;79;34869;-86
2022/11/25 20:14:08;;;;;;;98.40;39.90;;;;;;;3.59;100.00;101012.26;3581378;80;98898;-86
2022/11/25 20:19:13;;;;;;;108.80;41.43;;;;;;;3.59;100.00;101020.42;3585837;80;34918;-86
2022/11/25 20:24:18;;;;;;;116.03;38.10;;;;;;;3.60;100.00;101020.11;3573572;80;98997;-86
2022/11/25 20:29:21;;;;;;;107.23;39.63;;;;;;;3.59;100.00;101028.04;3588822;81;26511;-87
2022/11/25 20:34:23;;;;;;;108.13;42.43;;;;;;;3.56;100.00;101030.02;3592034;80;99218;-87
2022/11/25 20:39:25;;;;;;;108.63;40.87;;;;;;;3.59;100.00;101024.50;3592305;80;47095;-87
2022/11/25 20:44:27;;;;;;;95.72;36.83;;;;;;;3.55;100.00;101036.58;3588802;80;99491;-88
2022/11/25 20:49:28;;;;;;;109.50;41.20;;;;;;;3.58;100.00;101034.61;3601355;80;26638;-88
2022/11/25 20:54:31;;;;;;;125.27;43.63;;;;;;;3.58;100.00;101038.69;3604767;80;99161;-87
2022/11/25 20:59:32;;;;;;;119.13;44.70;;;;;;;3.63;100.00;101037.73;3603321;80;27877;-87
2022/11/25 21:04:42;;;;;;;123.70;44.08;;;;;;;3.66;100.00;101047.42;3596848;80;99337;-88
2022/11/25 21:09:40;;;;;;;;;;;;;;;3.66;100.00;101046.64;3619133;79;26101;-87
2022/11/25 21:14:44;;;;;;;113.42;39.40;;;;;;;3.66;100.00;101050.14;3628916;79;84585;-86
2022/11/25 21:19:45;;;;;;;113.68;41.98;;;;;;;3.68;100.00;101047.11;3628259;79;29965;-87
2022/11/25 21:24:45;;;;;;;119.95;44.18;;;;;;;3.67;100.00;101053.11;3617909;79;99438;-87
2022/11/25 21:29:46;;;;;;;104.20;39.67;;;;;;;3.67;100.00;101051.75;3647128;79;26286;-87
2022/11/25 21:34:48;;;;;;;106.77;39.30;;;;;;;3.63;100.00;101050.80;3626863;79;99054;-87
2022/11/25 21:39:49;;;;;;;103.13;38.70;;;;;;;3.63;100.00;101067.67;3632376;79;34952;-86
2022/11/25 21:44:51;;;;;;;113.57;41.83;;;;;;;3.63;100.00;101063.59;3624106;79;99144;-87
2022/11/25 21:49:53;;;;;;;125.00;43.25;;;;;;;3.61;100.00;101073.42;3632502;79;35103;-88
2022/11/25 21:54:55;;;;;;;102.03;40.43;;;;;;;3.65;100.00;101078.48;3610633;79;99182;-87
2022/11/25 21:59:56;;;;;;;111.65;43.02;;;;;;;3.63;100.00;101088.90;3620696;79;32241;-88
2022/11/25 22:04:57;;;;;;;121.87;43.53;;;;;;;3.66;100.00;101094.27;3621858;79;99418;-88
2022/11/25 22:09:58;;;;;;;112.93;42.53;;;;;;;3.70;100.00;101096.59;3625169;79;32024;-89
2022/11/25 22:15:00;;;;;;;109.97;41.47;;;;;;;3.66;100.00;101097.78;3579955;80;99245;-87
2022/11/25 22:20:01;;;;;;;116.40;41.30;;;;;;;3.64;100.00;101101.93;3613151;80;34636;-89
2022/11/25 22:25:03;;;;;;;109.53;41.00;;;;;;;3.65;100.00;101101.63;3598539;80;99023;-87
2022/11/25 22:30:05;;;;;;;103.37;41.70;;;;;;;3.65;100.00;101105.70;3598510;80;34934;-88
2022/11/25 22:35:16;;;;;;;129.63;42.57;;;;;;;3.55;100.00;101094.31;3581691;81;99098;-88
2022/11/25 22:40:17;;;;;;;125.20;41.67;;;;;;;3.65;100.00;101109.00;3580205;80;29166;-88
2022/11/25 22:45:31;;;;;;;131.73;51.13;;;;;;;3.67;100.00;101114.34;3601229;80;99154;-87
2022/11/25 22:50:33;;;;;;;129.50;49.57;;;;;;;3.65;100.00;101115.81;3601669;80;29258;-86
2022/11/25 22:55:34;;;;;;;917.27;370.10;;;;;;;3.66;100.00;101113.33;3603182;80;98985;-86
2022/11/25 23:00:40;;;;;;;511.60;189.13;;;;;;;3.70;100.00;101117.00;3606448;80;35367;-87
2022/11/25 23:05:41;;;;;;;617.30;264.38;;;;;;;3.68;100.00;101120.06;3600637;80;99388;-86
2022/11/25 23:10:43;;;;;;;172.10;60.45;;;;;;;3.71;100.00;101122.14;3626145;80;34822;-86
2022/11/25 23:15:57;;;;;;;96.83;37.80;;;;;;;3.73;100.00;101123.19;3637340;80;99030;-87
2022/11/25 23:20:58;;;;;;;121.77;44.97;;;;;;;3.70;100.00;101113.73;3638466;80;26535;-87